Observations for LANVEOC POULMIC, France (LFRL)

LFRL 252200Z AUTO 06002KT 9999 BKN007 12/11 Q1023   
LFRL 252130Z AUTO 05003KT 9999 SCT008 11/11 Q1023   
LFRL 252100Z AUTO 36004KT 340V040 CAVOK 10/09 Q1023 
LFRL 252030Z AUTO 01004KT CAVOK 10/09 Q1023 
LFRL 252000Z AUTO 01003KT CAVOK 11/10 Q1023 
LFRL 251930Z AUTO 35003KT 320V030 CAVOK 12/10 Q1023 
LFRL 251900Z AUTO 35006KT CAVOK 13/10 Q1023 
LFRL 251830Z AUTO 35007KT CAVOK 13/10 Q1023 
LFRL 251800Z AUTO 34007KT CAVOK 14/10 Q1023 NOSIG   
LFRL 251730Z AUTO 34007KT CAVOK 15/10 Q1023 NOSIG   
LFRL 251700Z AUTO 34008KT CAVOK 16/11 Q1022 NOSIG   
LFRL 251630Z AUTO 34008KT CAVOK 16/11 Q1022 NOSIG   
LFRL 251600Z AUTO 35008KT 9999 FEW021 17/11 Q1022 NOSIG 
LFRL 251530Z AUTO 33009KT 9999 BKN020 17/12 Q1022 NOSIG 
LFRL 251500Z AUTO 34009KT 9999 FEW021 18/12 Q1022 NOSIG 
LFRL 251430Z AUTO 33007KT CAVOK 18/12 Q1022 NOSIG   
LFRL 251400Z AUTO 33008KT CAVOK 18/12 Q1022 NOSIG   
LFRL 251330Z AUTO 33007KT CAVOK 18/11 Q1021 NOSIG   
LFRL 251300Z AUTO 34007KT 310V010 CAVOK 18/12 Q1021 NOSIG   
LFRL 251230Z AUTO 35007KT CAVOK 18/11 Q1021 NOSIG   
LFRL 251200Z AUTO 34008KT CAVOK 18/12 Q1021 NOSIG   
LFRL 251130Z AUTO 33008KT CAVOK 17/12 Q1021 NOSIG   
LFRL 251100Z AUTO 35006KT 320V030 CAVOK 17/12 Q1021 TEMPO BKN010
LFRL 251030Z AUTO 35007KT 320V020 CAVOK 17/12 Q1021 TEMPO BKN010
LFRL 251000Z AUTO 35009KT 9999 FEW016 16/12 Q1021 BECMG BKN010  
LFRL 250930Z AUTO 34008KT 9999 FEW014 16/12 Q1021 BECMG BKN010  
LFRL 250900Z AUTO 35008KT 330V030 9999 BKN010 BKN015 15/12 Q1021 TEMPO BKN004   
LFRL 250830Z AUTO 34007KT 9999 BKN007 OVC013 14/13 Q1020 BECMG BKN010   
LFRL 250800Z AUTO 34007KT 9999 BKN005 OVC010 14/12 Q1020 BECMG BKN010   
LFRL 250730Z AUTO 34007KT 9000 BKN004 OVC008 13/12 Q1020 BECMG BKN010   
LFRL 250700Z AUTO 33009KT 9999 OVC007 13/12 Q1020 TEMPO BKN002  
LFRL 250630Z AUTO 32006KT 9999 OVC009 13/12 Q1020 TEMPO BKN002  
LFRL 250600Z AUTO 34007KT 9999 OVC006 13/12 Q1019 TEMPO BKN002  
LFRL 250530Z AUTO 34008KT 9999 OVC006 13/13 Q1019 TEMPO BKN002  
LFRL 250500Z AUTO 33009KT 6000 OVC002 13/13 Q1019   
LFRL 250430Z AUTO 34007KT 0800 0550 R23/0700U R05/1100D FG VV/// 13/13 Q1018
LFRL 250400Z AUTO 34007KT 0600 0450 R23/0500D R05/0750N FG VV/// 13/13 Q1018
LFRL 250330Z AUTO 33007KT 0450 0350 R23/0400N R05/0550N FG VV/// 13/12 Q1018
LFRL 250300Z AUTO 32007KT 6000 VV/// 14/13 Q1018
LFRL 250230Z AUTO 33007KT 6000 1300 R23/P2000 R05/1600D BKN002 OVC021 14/13 Q1018   
LFRL 250200Z AUTO 33006KT 5000 BR BKN002 OVC006 14/13 Q1018 
LFRL 250130Z AUTO 35005KT 5000 BR BKN004 OVC022 14/13 Q1018 
LFRL 250100Z AUTO 35005KT 5000 BR OVC003 14/13 Q1018
LFRL 250030Z AUTO 36004KT 4900 BR OVC003 14/13 Q1018
LFRL 250000Z AUTO 35006KT 320V020 5000 BR OVC003 14/13 Q1018
LFRL 242330Z AUTO 36005KT 4800 BR BKN003 BKN140 OVC180 14/13 Q1018  
LFRL 242300Z AUTO 02004KT 5000 BR OVC004 15/14 Q1018
LFRL 242230Z AUTO 35003KT 5000 BR BKN004 OVC008 15/14 Q1018 
LFRL 242200Z AUTO 35006KT 5000 BR OVC003 15/14 Q1018
LFRL 242130Z AUTO 01005KT 5000 BR OVC004/// ///TCU 15/14 Q1018